Flight Track Log - Related Links

Times and Time Zones

All times are in EDT time to prevent confusion due to time zone crossing. See the SKW4444 flight status page for this flight to view local times or setup timezone preferences in your user account.

Time Position Orientation Groundspeed Altitude Reporting Facility
EDT Latitude Longitude Course Direction KTS MPH feet Rate Location/Type
Sun 12:40:12 AM 40.7758 -111.9756 210° Southwest 173 199 4,900  Level Salt Lake Center
Sun 12:40:49 AM 40.7494 -111.9958 210° Southwest 195 224 5,700 1,456 Climbing Salt Lake Center
Sun 12:41:55 AM 40.7753 -112.0833 291° West 270 311 7,400 2,083 Climbing Salt Lake Center
Sun 12:42:50 AM 40.8253 -112.1517 314° West 275 316 9,900 2,256 Climbing Salt Lake Center
Sun 12:44:08 AM 40.9064 -112.1797 345° North 290 334 12,400 1,381 Climbing Salt Lake Center
Sun 12:45:09 AM 40.9139 -112.0633 85° East 344 396 13,100 1,082 Climbing Salt Lake Center
Sun 12:46:10 AM 40.8894 -111.9328 104° East 374 430 14,600 1,525 Climbing Salt Lake Center
Sun 12:47:11 AM 40.8636 -111.7969 104° East 390 449 16,200 1,328 Climbing Salt Lake Center
Sun 12:48:12 AM 40.8378 -111.6542 103° East 406 467 17,300 1,082 Climbing Salt Lake Center
Sun 12:49:13 AM 40.8033 -111.4714 104° East 433 498 18,400 1,131 Climbing Salt Lake Center
Sun 12:50:14 AM 40.7731 -111.3136 104° East 446 513 19,600 1,230 Climbing Salt Lake Center
Sun 12:51:15 AM 40.7431 -111.1561 104° East 445 512 20,900 1,279 Climbing Salt Lake Center
Sun 12:52:16 AM 40.7117 -110.9964 104° East 449 517 22,200 1,180 Climbing Salt Lake Center
Sun 12:53:17 AM 40.6800 -110.8361 105° East 453 521 23,300 1,033 Climbing Salt Lake Center
Sun 12:54:18 AM 40.6486 -110.6742 104° East 458 527 24,300 984 Climbing Salt Lake Center
Sun 12:55:19 AM 40.6131 -110.4994 105° East 462 532 25,300 984 Climbing Salt Lake Center
Sun 12:56:20 AM 40.5822 -110.3428 104° East 465 535 26,300 1,033 Climbing Salt Lake Center
Sun 12:57:21 AM 40.5467 -110.1700 105° East 466 536 27,400 984 Climbing Salt Lake Center
Sun 12:58:22 AM 40.5147 -110.0117 105° East 467 537 28,300 1,033 Climbing Salt Lake Center
Sun 12:59:23 AM 40.4769 -109.8278 105° East 466 536 29,500 1,041 Climbing Salt Lake Center
Sun 01:00:23 AM 40.4447 -109.6717 105° East 464 534 30,400 885 Climbing Salt Lake Center
Sun 01:01:25 AM 40.4119 -109.5153 105° East 465 535 31,300 683 Climbing Salt Lake Center
Sun 01:02:26 AM 40.3728 -109.3314 106° East 466 536 31,800 492 Climbing Salt Lake Center
Sun 01:03:27 AM 40.3383 -109.1686 105° East 478 550 32,300 492 Climbing Salt Lake Center
Sun 01:04:28 AM 40.3039 -109.0047 105° East 484 557 32,800 545 Climbing Salt Lake Center
Sun 01:05:28 AM 40.2628 -108.8108 105° East 492 566 33,400 545 Climbing Salt Lake Center
Sun 01:06:29 AM 40.2272 -108.6464 106° East 489 563 33,900 443 Climbing Salt Lake Center
Sun 01:07:30 AM 40.1922 -108.4817 105° East 488 562 34,300 492 Climbing Salt Lake Center
Sun 01:08:31 AM 40.1486 -108.2886 106° East 492 566 34,900 541 Climbing Salt Lake Center
Sun 01:09:32 AM 40.1122 -108.1247 106° East 490 564 35,400 496 Climbing Salt Lake Center
Sun 01:10:32 AM 40.0739 -107.9625 107° East 486 559 35,900 475 Climbing Salt Lake Center
Sun 01:11:51 AM 39.9722 -107.7831 126° Southeast 475 547 36,500 471 Climbing Denver Center
Sun 01:12:52 AM 39.8744 -107.6414 132° Southeast 470 541 37,000 248 Climbing Denver Center
Sun 01:13:52 AM 39.7908 -107.5192 132° Southeast 472 543 37,000  Level Denver Center
Sun 01:14:53 AM 39.7069 -107.3972 132° Southeast 472 543 37,000  Level Denver Center
Sun 01:15:53 AM 39.6231 -107.2775 132° Southeast 468 539 37,000  Level Denver Center
Sun 01:16:54 AM 39.5250 -107.1369 132° Southeast 469 540 37,000 446 Level Denver Center
Sun 01:17:54 AM 39.4414 -107.0172 132° Southeast 468 539 37,900 942 Climbing Denver Center
Sun 01:18:55 AM 39.3611 -106.9000 132° Southeast 455 524 38,900 545 Climbing Denver Center
Sun 01:19:55 AM 39.2692 -106.7692 132° Southeast 442 509 39,000 45 Climbing Denver Center
Sun 01:21:08 AM 39.1878 -106.6533 132° Southeast 450 518 39,000  Level Denver Center
Sun 01:22:08 AM 39.0772 -106.4981 132° Southeast 457 526 39,000  Level Denver Center
Sun 01:23:09 AM 38.9950 -106.3814 132° Southeast 458 527 39,000  Level Denver Center
Sun 01:24:16 AM 38.8972 -106.2458 133° Southeast 461 531 39,000  Level Denver Center
Sun 01:25:16 AM 38.8081 -106.1217 133° Southeast 450 518 39,000  Level Denver Center
Sun 01:26:17 AM 38.7225 -106.0022 133° Southeast 454 522 39,000  Level Denver Center
Sun 01:27:17 AM 38.6389 -105.8850 132° Southeast 450 518 39,000  Level Denver Center
Sun 01:28:18 AM 38.5531 -105.7678 133° Southeast 452 520 39,000  Level Denver Center
Sun 01:29:18 AM 38.4683 -105.6508 133° Southeast 449 517 39,000  Level Denver Center
Sun 01:30:30 AM 38.3839 -105.5331 132° Southeast 450 518 39,000  Level Denver Center
Sun 01:31:31 AM 38.2808 -105.3939 133° Southeast 446 513 39,000  Level Denver Center
Sun 01:32:31 AM 38.1989 -105.2822 133° Southeast 448 516 39,000  Level Denver Center
Sun 01:33:32 AM 38.1161 -105.1714 133° Southeast 450 518 39,000  Level Denver Center
Sun 01:34:32 AM 38.0206 -105.0425 133° Southeast 450 518 39,000  Level Denver Center
Sun 01:35:33 AM 37.9386 -104.9306 133° Southeast 450 518 39,000  Level Denver Center
Sun 01:36:33 AM 37.8558 -104.8200 133° Southeast 452 520 39,000  Level Denver Center
Sun 01:37:33 AM 37.7625 -104.6886 132° Southeast 453 521 39,000  Level Denver Center
Sun 01:38:34 AM 37.7153 -104.5489 113° Southeast 454 522 39,000  Level Denver Center
Sun 01:39:34 AM 37.6722 -104.4067 111° Southeast 455 524 39,000  Level Denver Center
Sun 01:40:35 AM 37.6217 -104.2428 111° Southeast 450 518 39,000  Level Denver Center
Sun 01:41:35 AM 37.5792 -104.1017 111° Southeast 451 519 39,000  Level Denver Center
Sun 01:42:35 AM 37.5364 -103.9622 111° Southeast 465 535 39,000  Level Denver Center
Sun 01:43:36 AM 37.4867 -103.7953 111° Southeast 466 536 39,000  Level Denver Center
Sun 01:44:36 AM 37.4422 -103.6539 112° Southeast 458 527 39,000  Level Denver Center
Sun 01:45:36 AM 37.3897 -103.4869 112° Southeast 461 531 39,000  Level Denver Center
Sun 01:46:37 AM 37.3450 -103.3433 111° Southeast 461 531 39,000  Level Denver Center
Sun 01:47:37 AM 37.2992 -103.1994 112° Southeast 464 534 39,000  Level Denver Center
Sun 01:48:37 AM 37.2536 -103.0561 112° Southeast 462 532 39,000  Level Denver Center
Sun 01:49:38 AM 37.2008 -102.8875 111° Southeast 464 534 39,000  Level Denver Center
Sun 01:50:09 AM 37.1761 -102.8061 111° Southeast 464 534 39,000  Level Kansas City Center
Sun 01:50:40 AM 37.1556 -102.7456 113° Southeast 461 531 39,000  Level Albuquerque Center
Sun 01:51:41 AM 37.1092 -102.6025 112° Southeast 462 532 39,000  Level Albuquerque Center
Sun 01:52:41 AM 37.0600 -102.4522 112° Southeast 461 531 39,000  Level Albuquerque Center
Sun 01:53:41 AM 37.0053 -102.2856 112° Southeast 463 533 39,000  Level Albuquerque Center
Sun 01:54:42 AM 36.9583 -102.1417 112° Southeast 467 537 39,000  Level Albuquerque Center
Sun 01:55:42 AM 36.9117 -101.9975 112° Southeast 469 540 39,000  Level Albuquerque Center
Sun 01:56:43 AM 36.8567 -101.8297 112° Southeast 469 540 39,000  Level Albuquerque Center
Sun 01:57:43 AM 36.8083 -101.6850 113° Southeast 472 543 39,000  Level Albuquerque Center
Sun 01:58:44 AM 36.7608 -101.5406 112° Southeast 472 543 39,000  Level Albuquerque Center
Sun 01:59:44 AM 36.7031 -101.3725 113° Southeast 473 544 39,000  Level Albuquerque Center
Sun 02:00:45 AM 36.6561 -101.2283 112° Southeast 472 543 39,000  Level Albuquerque Center
Sun 02:01:45 AM 36.6069 -101.0856 113° Southeast 471 542 39,000  Level Albuquerque Center
Sun 02:02:46 AM 36.5500 -100.9178 113° Southeast 473 544 39,000  Level Albuquerque Center
Sun 02:03:46 AM 36.5025 -100.7794 113° Southeast 473 544 39,000  Level Albuquerque Center
Sun 02:04:46 AM 36.4503 -100.6272 113° Southeast 476 548 39,000  Level Albuquerque Center
Sun 02:05:47 AM 36.3981 -100.4758 113° Southeast 478 550 39,000  Level Albuquerque Center
Sun 02:06:47 AM 36.3444 -100.3247 114° Southeast 477 549 39,000  Level Albuquerque Center
Sun 02:07:48 AM 36.2919 -100.1739 113° Southeast 476 548 39,000  Level Albuquerque Center
Sun 02:08:48 AM 36.2397 -100.0222 113° Southeast 478 550 39,000  Level Albuquerque Center
Sun 02:09:49 AM 36.1878 -99.8719 113° Southeast 475 547 39,000  Level Albuquerque Center
Sun 02:11:14 AM 36.1131 -99.6622 114° Southeast 476 548 39,000 -372 Level Kansas City Center
Sun 02:12:14 AM 36.0586 -99.5114 114° Southeast 480 552 38,100 -966 Descending Kansas City Center
Sun 02:13:12 AM 36.0017 -99.3547 114° Southeast 492 566 37,100 -1,008 Descending Kansas City Center
Sun 02:14:13 AM 35.9472 -99.1961 113° Southeast 498 573 36,100 -1,000 Descending Kansas City Center
Sun 02:15:12 AM 35.8919 -99.0389 113° Southeast 500 575 35,100 -2,000 Descending Kansas City Center
Sun 02:16:13 AM 35.8328 -98.8844 115° Southeast 500 575 32,100 -3,393 Descending Kansas City Center
Sun 02:17:14 AM 35.7772 -98.7328 114° Southeast 490 564 28,200 -3,850 Descending Kansas City Center
Sun 02:18:13 AM 35.7258 -98.5925 114° Southeast 487 560 24,400 -3,933 Descending Kansas City Center
Sun 02:19:13 AM 35.6714 -98.4453 114° Southeast 477 549 20,400 -3,650 Descending Kansas City Center
Sun 02:20:13 AM 35.6244 -98.2956 111° Southeast 441 507 17,100 -3,138 Descending Kansas City Center
Sun 02:21:02 AM 35.5978 -98.1997 109° East 417 480 14,700 -3,028 Descending Fort Worth Center
Sun 02:22:02 AM 35.5692 -98.0847 107° East 371 427 11,600 -2,500 Descending Fort Worth Center
Sun 02:23:02 AM 35.5406 -97.9825 109° East 340 391 9,700 -2,100 Descending Fort Worth Center
Sun 02:24:02 AM 35.5283 -97.8803 98° East 311 358 7,400 -2,050 Descending Fort Worth Center
Sun 02:25:02 AM 35.5078 -97.7883 105° East 286 329 5,600 -1,750 Descending Fort Worth Center
Sun 02:26:02 AM 35.4831 -97.7219 115° Southeast 250 288 3,900 -1,500 Descending Fort Worth Center
Sun 02:27:02 AM 35.4519 -97.6761 130° Southeast 204 235 2,600 -1,300 Descending Fort Worth Center

Login

Don't have an account? Register now (free) for customized features, flight alerts, and more!